INFORMACIÓN METAR y TAF
METAR FOR LEZG
ADDS - METARS form results

(1048 UTC 09 March 2021)
Data provider http://aviationweather.gov/metar/data/
 
METAR text: LEZG 091030Z 31016KT CAVOK 11/03 Q1019
Conditions at: LEZG (ZARAGOZA (MIL/CI, ES) observed 1030 UTC 09 March 2021
Temperature: 11.0°C (52°F)
Dewpoint: 3.0°C (37°F) [RH = 58%]
Pressure (altimeter): 30.09 inches Hg (1019.0 mb)
Winds: from the NW (310 degrees) at 18 MPH (16 knots; 8.2 m/s)
Visibility: 6 or more miles (10+ km)
Ceiling: ceiling and visibility are OK
Clouds: unknown
Weather: no significant weather observed at this time

METAR text: LEZG 091000Z 31019KT 280V340 CAVOK 11/03 Q1019
Conditions at: LEZG (ZARAGOZA (MIL/CI, ES) observed 1000 UTC 09 March 2021
Temperature: 11.0°C (52°F)
Dewpoint: 3.0°C (37°F) [RH = 58%]
Pressure (altimeter): 30.09 inches Hg (1019.0 mb)
Winds: from the NW (310 degrees) at 22 MPH (19 knots; 9.8 m/s)
Visibility: 6 or more miles (10+ km)
Ceiling: ceiling and visibility are OK
Clouds: unknown
Weather: no significant weather observed at this time

Forecast for: LEZG (ZARAGOZA (MIL/CI, ES)
Text: TAF LEZG 090500Z 0906/1006 31017KT 9999 FEW030 TX15/0914Z TN05/0906Z
Forecast period: 0600 UTC 09 March 2021 to 0600 UTC 10 March 2021
Forecast type: FROM: standard forecast or significant change
Winds: from the NW (310 degrees) at 20 MPH (17 knots; 8.7 m/s)
Visibility: 6 or more miles (10+ km)
Ceiling: at least 12,000 feet AGL
Clouds: few clouds at 3000 feet AGL
Weather: no significant weather forecast for this period
Text: TEMPO 0908/0918 31020G30KT
Forecast period: 0800 to 1800 UTC 09 March 2021
Forecast type: TEMPORARY: The following changes expected for less than half the time period
Winds: from the NW (310 degrees) at 23 MPH (20 knots; 10.3 m/s)
gusting to 34 MPH (30 knots; 15.4 m/s)
Visibility: missing
Ceiling: unknown
Clouds: missing
Weather: no significant weather forecast for this period

 MAPA DE AEROPUERTO

 INFORMACIÓN DE PISTA
Pista 12L Longitud 9843 ft Ancho 148 ft
Elevación 823 ft Umbral desplazado 0 ft Rumbo de pista 120
Pista 30R Longitud 9843 ft Ancho 148 ft
Elevación 834 ft Umbral desplazado 0 ft Rumbo de pista 300
Pista 12R Longitud 12198 ft Ancho 148 ft
Elevación 834 ft Umbral desplazado 0 ft Rumbo de pista 120
Pista 30L Longitud 12198 ft Ancho 148 ft
Elevación 863 ft Umbral desplazado 0 ft Rumbo de pista 300

 FRECUANCIAS DEL AEROPUERTO
Tipo APP Nombre APP Frecuencia 119.3 MHZ
Tipo GND Nombre GND Frecuencia 118.1 MHZ
Tipo TWR Nombre TWR Frecuencia 118.1 MHZ

 RADIO AYUDAS DEL AEROPUERTO
Tipo VOR-DME Nombre Zaragoza Frecuencia 113000 KHZ
Tipo NDB Nombre Zaragoza Frecuencia 389 KHZ
Tipo TACAN Nombre Zaragoza Frecuencia 133700 KHZ
Tipo NDB Nombre Zaragoza Frecuencia 348 KHZ



Powered by Virtual Airlines Manager [v2.6.2]